Marcos Ribeiro

Recruteur - Cruzeiro
30 Janv 2028
Dimanche
Processus

Personnalité

Adaptabilité (18) Ambition (2) Controverse (6) Loyauté (7) Pression (6) Professionnalisme (13) Sportivité (3) Tempérament (7)

Profil

Style d'entraînement Démocratique
Diplôme Continental C
Détermination 6
Gestion des joueurs 9
Motivation 5
Discipline 8
Satisfaction professionnelle
100%
Fatigue
0%
Rôle Recruteur
Salaire 65.4K p/s
Contrat 14.03.2028

Performance

Comportement Bon
Efficacité de l'entraînement
52%
Développement des joueurs
70%
Prévention des blessures
70%
Mise en place tactique
65%

Événements récents

Négociation de contrat entamée maintenant
A participé à une réunion de recrutement maintenant
A recommandé une cible de transfert maintenant
A recommandé une cible de transfert maintenant
A recommandé une cible de transfert maintenant
Négociation de contrat entamée maintenant
Négociation de contrat entamée maintenant
Négociation de contrat entamée maintenant

Suivi en cours

245
Joueur Club Statut Capacité Confiance Observé Dernière observation Dernier vote
Eric Ramires Bragantino Actif 135 / 117 72% 1 27.12.2027 Approuver
Facundo Colidio Vasco da Gama Actif 123 / 125 72% 1 06.12.2027 Approuver
Musa Barrow ES Setif Actif 152 / 132 40% 1 30.11.2027 -
Brennan Johnson Middlesbrough Actif 149 / 162 40% 1 30.11.2027 -
Vinícius Lira São Paulo Actif 117 / 135 40% 6 28.11.2027 -
Ollie Scarles West Ham United Actif 128 / 127 40% 3 28.11.2027 -
Alani Maritimo Actif 113 / 119 40% 1 28.11.2027 -
Tiago Freitas Benfica Actif 117 / 119 40% 5 25.11.2027 -
Matteo Pérez Vinlöf Dinamo Zagreb Actif 135 / 127 40% 2 25.11.2027 -
Afonso Assis Moreirense Actif 109 / 113 40% 1 25.11.2027 -
Nahuel Leivas Montevideo City Torque Actif 105 / 99 40% 2 24.11.2027 -
Josh Nichols Oldham Athletic Actif 123 / 133 40% 3 24.11.2027 -
Daniel Banjaqui Benfica Actif 118 / 125 40% 3 22.11.2027 -
Kauã Moraes Flamengo Actif 131 / 126 40% 4 22.11.2027 -
Pablo Lúcio St. Gallen Actif 105 / 109 40% 2 22.11.2027 -
Kenan Busuladžić Malmo FF Actif 119 / 116 40% 3 21.11.2027 -
Bernardo Lima Porto Actif 104 / 129 40% 2 21.11.2027 -
Rayhan Momade Sporting CP Actif 112 / 114 40% 2 21.11.2027 -
Victor Hernandez Santa Fe Actif 116 / 120 40% 3 20.11.2027 -
Oscar Steinke Brånby Hammarby Actif 101 / 104 40% 1 20.11.2027 -
Nicolas Sport Recife Actif 107 / 117 40% 7 19.11.2027 -
Eduardo Felicíssimo Sporting CP Actif 114 / 112 40% 7 19.11.2027 -
Jorrel Hato Chelsea Actif 155 / 167 40% 4 19.11.2027 -
Archie Gray Southampton Actif 150 / 162 40% 3 16.11.2027 -
Ayden Heaven Portsmouth Actif 152 / 138 40% 3 13.11.2027 -
Agustín De la Cuesta Racing Actif 111 / 128 40% 6 13.11.2027 -
Salvador Blopá Sporting CP Actif 117 / 114 40% 5 09.11.2027 -
Matias Siltanen Malmo FF Actif 126 / 128 40% 6 09.11.2027 -
Giovanni Leoni Lincoln City Actif 148 / 139 40% 2 08.11.2027 -
Pedro Soma San Diego Football Club Actif 106 / 119 40% 4 31.10.2027 -
Agustín Obregón River Plate Actif 114 / 124 40% 2 31.10.2027 -
Honest Ahanor Atalanta Actif 139 / 137 40% 3 30.10.2027 -
Lucas Bergvall Tottenham Actif 141 / 163 40% 2 28.10.2027 -
Jonny Shore New York City Actif 103 / 115 40% 3 27.10.2027 -
Adrian Skogmar Malmo FF Actif 114 / 136 40% 2 26.10.2027 -
Julián Bazán New York Red Bulls Actif 114 / 128 40% 3 24.10.2027 -
Toni Tamarit Alverca Actif 124 / 123 40% 2 24.10.2027 -
Souza Tottenham Actif 134 / 124 40% 2 22.10.2027 -
Josh King Newcastle United Actif 145 / 146 40% 2 20.10.2027 -
Caleb Yirenkyi Coventry City Actif 143 / 144 40% 2 17.10.2027 -
Azizbek To'lqinbekov Bunyodkor Actif 109 / 97 40% 1 17.10.2027 -
Martim Cunha Porto Actif 104 / 124 40% 3 16.10.2027 -
Chris Rigg Sunderland Actif 142 / 141 40% 1 12.10.2027 -
Gonçalo Oliveira Benfica Actif 114 / 126 40% 2 30.09.2027 -
Sebastián Ramírez Aguilas Doradas Actif 101 / 120 40% 1 26.09.2027 -
Edvard Pettersen Sandefjord Actif 103 / 104 40% 3 10.09.2027 -
Miguel Figueiredo Benfica Actif 114 / 136 40% 1 08.09.2027 -
Celías Ingenthron Platense Actif 109 / 127 40% 1 06.09.2027 -
Josh Acheampong Everton Actif 146 / 158 40% 2 02.09.2027 -
Mbekezeli Mbokazi Chicago Fire Actif 121 / 120 40% 2 02.09.2027 -
Trey Nyoni Rotherham United Actif 137 / 128 40% 1 30.08.2027 -
Martim Ferreira Benfica Actif 105 / 104 40% 1 20.08.2027 -
Federico Matarán Giana Erminio Actif 93 / 109 40% 1 20.08.2027 -
Matteo Cichella Frosinone Actif 130 / 123 40% 1 18.08.2027 -
Simone Kosijer Triestina Actif 101 / 92 40% 2 11.08.2027 -
Tomás Pérez Porto Actif 127 / 135 40% 1 11.08.2027 -
Eliás Montiel Borussia Dortmund Actif 126 / 128 40% 1 10.08.2027 -
Kevin Pinto Benfica Actif 93 / 113 40% 1 09.08.2027 -
Zane Albarus Shrewsbury Town Actif 99 / 99 40% 1 08.08.2027 -
Rhys Walters Port Vale Actif 114 / 120 40% 1 08.08.2027 -
Ivan Giraldo Valencia Actif 115 / 132 40% 1 08.08.2027 -
Leandro Martins Benfica Actif 97 / 108 40% 1 07.08.2027 -
Jenson Jones Walsall Actif 89 / 92 40% 1 04.08.2027 -
Nuno Moreira Vasco da Gama Perdu 126 / 131 72% 1 05.07.2027 Approuver
Assane Diao Como Actif 147 / 166 40% 3 14.06.2027 -
João Pedro Chelsea Actif 158 / 155 40% 5 14.06.2027 -
Mile Svilar AS Roma Actif 161 / 162 40% 1 01.06.2027 -
Christian Pulisic AC Milan Actif 161 / 175 40% 1 31.05.2027 -
Chemsdine Talbi Sunderland Actif 152 / 153 40% 3 29.05.2027 -
Adrien Truffert Bournemouth Actif 141 / 167 40% 1 29.05.2027 -
Jacob Greaves Ipswich Town Actif 147 / 127 40% 3 27.05.2027 -
Rodrigo Muniz Fulham Actif 136 / 146 40% 6 27.05.2027 -
Jarrod Bowen West Ham United Actif 156 / 137 40% 4 27.05.2027 -
James Garner Everton Actif 147 / 135 40% 2 27.05.2027 -
Tino Livramento Newcastle United Actif 147 / 155 40% 3 27.05.2027 -
George Wickens Lincoln City Actif 128 / 133 40% 1 27.05.2027 -
Will Norris Wycombe Wanderers Actif 118 / 120 40% 1 27.05.2027 -
Will Mannion Charlton Athletic Actif 121 / 121 40% 1 27.05.2027 -
Nicolò Zaniolo Udinese Actif 151 / 151 40% 4 24.05.2027 -
Nicolas Jackson Aston Villa Actif 155 / 164 40% 2 24.05.2027 -
Yoane Wissa Newcastle United Actif 146 / 130 40% 2 24.05.2027 -
Fábio Carvalho Brentford Actif 138 / 151 40% 2 23.05.2027 -
Georginio Rutter Brighton Actif 156 / 140 40% 1 23.05.2027 -
Levi Colwill Chelsea Actif 156 / 146 40% 2 22.05.2027 -
Juanlu Bournemouth Actif 138 / 142 40% 3 22.05.2027 -
Amadou Onana Aston Villa Actif 150 / 170 40% 1 22.05.2027 -
Mohamed-Ali Cho Hull City Actif 130 / 126 40% 3 20.05.2027 -
Lautaro Martínez Inter Actif 183 / 171 40% 5 20.05.2027 -
Emanuel Emegha Chelsea Actif 135 / 146 40% 1 20.05.2027 -
Eddie Nketiah Crystal Palace Actif 143 / 156 40% 3 19.05.2027 -
Gonçalo Ramos AC Milan Actif 164 / 160 40% 3 19.05.2027 -
Dominic Solanke Tottenham Actif 150 / 131 40% 4 18.05.2027 -
Taty Castellanos West Ham United Actif 145 / 153 40% 2 18.05.2027 -
Gianluca Scamacca Atalanta Actif 148 / 154 40% 2 17.05.2027 -
Savinho Tottenham Actif 166 / 155 40% 6 17.05.2027 -
Malick Fofana Sunderland Actif 139 / 144 40% 1 17.05.2027 -
Manor Solomon West Ham United Actif 141 / 136 40% 1 17.05.2027 -
Mohammed Kudus Tottenham Actif 153 / 165 40% 1 16.05.2027 -
Martin Baturina Como Actif 137 / 143 40% 1 14.05.2027 -
Kevin Schade Chelsea Actif 148 / 133 40% 1 13.05.2027 -
Arijanet Murić Sassuolo Actif 148 / 130 40% 2 11.05.2027 -
David De Gea Fiorentina Actif 153 / 148 40% 1 11.05.2027 -
Kenan Yıldız Juventus Actif 158 / 173 40% 1 11.05.2027 -
Xavi Simons Tottenham Actif 161 / 150 40% 2 06.05.2027 -
Curtis Jones Inter Actif 150 / 156 40% 1 06.05.2027 -
Jørgen Strand Larsen Brighton Actif 135 / 157 40% 2 05.05.2027 -
Brooke Norton-Cuffy Hull City Actif 138 / 128 40% 4 04.05.2027 -
Giacomo Raspadori Atalanta Actif 147 / 160 40% 2 04.05.2027 -
Oli McBurnie Hull City Actif 131 / 125 40% 2 04.05.2027 -
Boubacar Kamara Aston Villa Actif 165 / 161 40% 1 04.05.2027 -
Max Johnston Derby County Actif 133 / 133 40% 2 30.04.2027 -
Kevin Fulham Actif 145 / 148 40% 2 29.04.2027 -
Ilyas Ansah Hull City Actif 125 / 142 40% 1 29.04.2027 -
Morgan Rogers Chelsea Actif 155 / 173 40% 2 25.04.2027 -
Gonzalo Fulham Actif 144 / 145 40% 3 24.04.2027 -
Mats Wieffer Brighton Actif 143 / 145 40% 1 24.04.2027 -
Yehor Yarmoliuk Brentford Actif 155 / 163 40% 2 23.04.2027 -
Mattia Perin Palermo Actif 140 / 135 40% 1 23.04.2027 -
Murphy Cooper Plymouth Argyle Actif 119 / 119 40% 1 23.04.2027 -
Alex Lowry Wycombe Wanderers Actif 125 / 108 40% 1 23.04.2027 -
Alex Robertson Cardiff City Actif 114 / 110 40% 1 20.04.2027 -
Cian Ashford Cardiff City Actif 120 / 107 40% 1 20.04.2027 -
Igor Jesus Nottingham Forest Actif 141 / 125 40% 1 18.04.2027 -
Adam Wharton Crystal Palace Actif 152 / 150 40% 3 17.04.2027 -
Jake O'Brien Everton Actif 137 / 143 40% 4 17.04.2027 -
Florentino Luís Ipswich Town Actif 151 / 128 40% 2 17.04.2027 -
Jacob Ramsey Newcastle United Actif 149 / 138 40% 1 17.04.2027 -
Che Adams Torino Actif 146 / 145 40% 1 17.04.2027 -
Noah Sadiki Sunderland Actif 134 / 138 40% 4 14.04.2027 -
Gustav Isaksen Lazio Actif 154 / 133 40% 1 14.04.2027 -
Crysencio Summerville Al-Hilal Actif 136 / 151 40% 2 13.04.2027 -
Cheick Doucouré Crystal Palace Actif 145 / 141 40% 2 13.04.2027 -
Enrico Delprato Parma Actif 144 / 152 40% 1 13.04.2027 -
Jayden Bogle Leeds United Actif 148 / 151 40% 1 13.04.2027 -
Dwight McNeil Crystal Palace Actif 135 / 140 40% 1 11.04.2027 -
Petar Musa FC Dallas Actif 141 / 128 40% 1 11.04.2027 -
Adrián Bernabé Parma Actif 139 / 142 40% 1 10.04.2027 -
Tiago Djaló Besiktas Actif 137 / 133 40% 1 10.04.2027 -
André Wolverhampton Actif 141 / 143 40% 1 10.04.2027 -
Antoni Milambo Brentford Actif 145 / 157 40% 1 09.04.2027 -
Danilo Botafogo Actif 135 / 147 40% 2 06.04.2027 -
Arthur Atta Fiorentina Actif 139 / 138 40% 1 06.04.2027 -
Tasos Douvikas Como Actif 145 / 151 40% 1 06.04.2027 -
Mateo Pellegrino Fiorentina Actif 142 / 142 40% 1 06.04.2027 -
Nicolò Cambiaghi Bologna Actif 144 / 146 40% 1 05.04.2027 -
Mohamed Belloumi Hull City Actif 130 / 129 40% 1 05.04.2027 -
Franculino Brighton Actif 131 / 156 40% 2 04.04.2027 -
Mamadou Sangaré Brentford Actif 148 / 126 40% 1 04.04.2027 -
Luciano Juba Bahia Actif 136 / 131 40% 1 04.04.2027 -
Santiago Castro AS Roma Actif 150 / 163 40% 2 02.04.2027 -
Eduardo Lozano Botafogo Actif 150 / 148 40% 1 02.04.2027 -
Jens Odgaard Juventus Actif 144 / 132 40% 1 30.03.2027 -
Joel Pereira Reading Actif 108 / 113 40% 1 30.03.2027 -
James Trafford Leeds United Actif 136 / 145 40% 1 30.03.2027 -
Léo Jardim Vasco da Gama Actif 130 / 141 40% 1 30.03.2027 -
Carlos Forbs Club Brugge Actif 134 / 140 40% 3 28.03.2027 -
Iván Fresneda Sporting CP Actif 141 / 147 40% 5 27.03.2027 -
Joshua Zirkzee Manchester United Actif 143 / 130 40% 2 27.03.2027 -
Kwadwo Baah Watford Actif 125 / 134 40% 1 27.03.2027 -
Rodrigo Pinheiro Famalicao Actif 138 / 117 40% 1 27.03.2027 -
João Gonçalves Oliveirense Actif 115 / 119 40% 3 25.03.2027 -
Pau Víctor Braga Actif 143 / 131 40% 1 25.03.2027 -
Steven Bergwijn Al-Ittihad Actif 148 / 157 40% 1 25.03.2027 -
João Félix Dinamo Moscow Actif 168 / 146 40% 1 25.03.2027 -
Dodi Lukébakio Benfica Actif 155 / 133 40% 1 24.03.2027 -
Joe Gelhardt Hull City Actif 126 / 140 40% 1 23.03.2027 -
Eduardo Quaresma Sporting CP Actif 134 / 145 40% 2 22.03.2027 -
Leandro Barreiro Benfica Actif 146 / 148 40% 1 22.03.2027 -
João Valido Chaves Actif 107 / 124 40% 3 20.03.2027 -
Joan Femenías Penafiel Actif 124 / 116 40% 2 20.03.2027 -
Andrea Pinamonti Lazio Actif 127 / 134 40% 1 20.03.2027 -
Noah Okafor Leeds United Actif 141 / 129 40% 1 20.03.2027 -
Joe Lumley Sheffield Wednesday Actif 116 / 108 40% 1 20.03.2027 -
Juan Soriano Académico de Viseu Actif 124 / 109 40% 4 18.03.2027 -
Samuel Soares Benfica Actif 128 / 133 40% 2 18.03.2027 -
Bongani Zungu Ajax Cape Town Actif 138 / 136 40% 2 18.03.2027 -
Andreas Schjelderup Benfica Actif 146 / 137 40% 1 18.03.2027 -
Jordan Pickford Everton Actif 163 / 151 40% 1 15.03.2027 -
Adriel Torreense Actif 115 / 117 40% 3 14.03.2027 -
Matheus Mendes Alverca Actif 124 / 113 40% 1 14.03.2027 -
Alexander Nübel Besiktas Actif 158 / 138 40% 1 14.03.2027 -
Zeno Debast Sporting CP Actif 137 / 145 40% 2 10.03.2027 -
Shea Charles Southampton Actif 129 / 124 40% 1 10.03.2027 -
Lazar Carević Famalicao Actif 141 / 118 40% 3 09.03.2027 -
Cezary Miszta Rio Ave Actif 132 / 137 40% 3 09.03.2027 -
Cláudio Ramos Porto Actif 128 / 124 40% 1 09.03.2027 -
William Gomes Porto Actif 151 / 128 40% 2 08.03.2027 -
Taichi Fukui Arouca Actif 115 / 124 40% 2 06.03.2027 -
Tony Strata Vitoria Guimaraes Actif 127 / 107 40% 2 05.03.2027 -
Lee Hyun-Ju Arouca Actif 119 / 115 40% 1 05.03.2027 -
Samuel Portugal Gil Vicente Actif 116 / 123 40% 4 03.03.2027 -
Caio Secco Leixões Actif 122 / 100 40% 3 03.03.2027 -
Sébastien Cibois Portimonense Actif 107 / 102 40% 2 01.03.2027 -
Gonçalo Tabuaço Maritimo Actif 100 / 100 40% 2 01.03.2027 -
Alberto Costa Porto Actif 155 / 143 40% 6 27.02.2027 -
Francisco Meixedo Feirense Actif 123 / 124 40% 4 25.02.2027 -
Anthony Patterson Wrexham Actif 140 / 116 40% 1 23.02.2027 -
Vitinho Botafogo Actif 136 / 124 40% 3 19.02.2027 -
Marcos Antonio Sport Recife Actif 133 / 137 40% 1 19.02.2027 -
Fabijan Buntić Farense Actif 112 / 110 40% 2 18.02.2027 -
Radek Vítek Middlesbrough Actif 141 / 137 40% 1 15.02.2027 -
Nathan Collins Brentford Actif 156 / 137 40% 2 13.02.2027 -
Dara O'Shea Ipswich Town Actif 145 / 125 40% 1 13.02.2027 -
Roberto Fernández Braga Actif 150 / 123 40% 1 12.02.2027 -
Peter Federico Gornik Zabrze Actif 119 / 119 40% 1 12.02.2027 -
André Moreira Felgueiras Actif 113 / 106 40% 4 07.02.2027 -
Josh Keeley Luton Town Actif 122 / 123 40% 2 07.02.2027 -
Nick Pope Newcastle United Actif 148 / 124 40% 1 06.02.2027 -
Gabriel Gudmundsson Leeds United Actif 150 / 129 40% 1 05.02.2027 -
Gabriel Silva Braga Actif 132 / 127 40% 1 04.02.2027 -
Carlos Álvarez Club America Actif 144 / 130 40% 1 03.02.2027 -
Mario Dorgeles Braga Actif 135 / 130 40% 1 03.02.2027 -
Mathias De Amorim Famalicao Actif 130 / 143 40% 2 02.02.2027 -
Luís Guilherme Sporting CP Actif 130 / 141 40% 1 02.02.2027 -
Brian Gutiérrez Guadalajara Actif 136 / 139 40% 1 01.02.2027 -
Raúl Rangel Braga Actif 132 / 132 40% 2 26.01.2027 -
Esteban Andrada Monterrey Actif 124 / 125 40% 1 26.01.2027 -
Joel Robles Estoril Praia Actif 117 / 111 40% 1 25.01.2027 -
Gabriel Brazão Santos Actif 142 / 122 40% 1 22.01.2027 -
Patrick Sequeira Casa Pia Actif 117 / 132 40% 1 19.01.2027 -
Tiago Volpi Bragantino Actif 129 / 129 40% 1 10.01.2027 -
Caoimhin Kelleher Brentford Actif 160 / 142 40% 1 10.01.2027 -
Vitor Hugo Lusitânia Lourosa Actif 96 / 112 40% 1 09.01.2027 -
Bernd Leno Fulham Actif 150 / 149 40% 1 07.01.2027 -
Hugo Souza Corinthians Actif 144 / 138 40% 1 07.01.2027 -
Vinicius Zanocelo Ceará Actif 129 / 116 72% 1 14.12.2026 Approuver
Caio Alexandre Bahia Actif 143 / 141 40% 2 26.11.2026 -
Gustaf Lagerbielke Braga Actif 138 / 145 40% 4 26.11.2026 -
Santiago Ramos Mingo Bahia Actif 140 / 133 40% 2 24.11.2026 -
Alexandro Bernabei Internacional Actif 133 / 126 40% 1 24.11.2026 -
Keane Lewis-Potter Brentford Actif 143 / 150 40% 1 20.11.2026 -
Sikou Niakaté Braga Actif 129 / 146 40% 3 18.11.2026 -
Gedson Fernandes Spartak Moscow Actif 140 / 154 40% 1 18.11.2026 -
Jean-Baptiste Gorby Braga Actif 121 / 115 40% 3 07.11.2026 -
Enzo Barrenechea Benfica Actif 151 / 159 40% 2 02.11.2026 -
Francisco Moura Porto Actif 134 / 120 40% 1 02.11.2026 -
Ousmane Diomande Nottingham Forest Actif 148 / 142 40% 2 31.10.2026 -
Samuel Dahl Benfica Actif 137 / 132 40% 1 28.10.2026 -
Bright Arrey-Mbi Braga Actif 125 / 121 40% 3 19.10.2026 -
Kevin Álvarez Club America Actif 134 / 120 40% 1 13.10.2026 -
Michael Kayode Brentford Actif 138 / 143 40% 1 09.10.2026 -
Giuliano Simeone Atlético Madrid Actif 149 / 152 40% 1 06.08.2026 -
Adrian Bajrami Braga Actif 110 / 135 40% 1 04.08.2026 -
Alex Scott Bournemouth Actif 138 / 141 40% 1 01.08.2026 -
Beni Mukendi Vitoria Guimaraes Actif 124 / 105 40% 1 01.08.2026 -